createdAt,value
2024-01-20T00:02:01.362Z,69.92
2024-01-20T00:04:33.258Z,69.89
2024-01-20T00:07:05.543Z,69.98
2024-01-20T00:09:46.042Z,69.75
2024-01-20T00:12:22.572Z,69.70
2024-01-20T00:14:54.491Z,69.90
2024-01-20T00:17:27.750Z,70.11
2024-01-20T00:20:00.703Z,70.23
2024-01-20T00:22:32.940Z,70.41
2024-01-20T00:25:05.143Z,70.36
2024-01-20T00:27:37.070Z,70.16
2024-01-20T00:30:10.645Z,70.22
2024-01-20T00:32:42.569Z,70.15
2024-01-20T00:35:14.458Z,70.29
2024-01-20T00:37:46.453Z,70.07
2024-01-20T00:40:18.315Z,69.88
2024-01-20T00:42:50.096Z,70.11
2024-01-20T00:45:21.952Z,70.17
2024-01-20T00:47:54.001Z,70.21
2024-01-20T00:50:25.883Z,70.20
2024-01-20T00:52:57.788Z,70.04
2024-01-20T00:55:29.661Z,70.23
2024-01-20T00:58:01.500Z,70.28
2024-01-20T01:00:33.336Z,70.20
2024-01-20T01:03:06.516Z,69.99
2024-01-20T01:05:38.393Z,70.01
2024-01-20T01:08:10.237Z,70.04
2024-01-20T01:10:43.075Z,69.97
2024-01-20T01:13:15.015Z,70.09
2024-01-20T01:15:47.005Z,70.17
2024-01-20T01:18:18.844Z,70.13
2024-01-20T01:20:50.694Z,70.30
2024-01-20T01:23:22.654Z,70.31
2024-01-20T01:25:55.237Z,70.13
2024-01-20T01:28:26.975Z,70.09
2024-01-20T01:30:58.748Z,69.74
2024-01-20T01:33:30.512Z,69.75
2024-01-20T01:36:02.247Z,69.79
2024-01-20T01:38:34.071Z,69.82
2024-01-20T01:41:06.010Z,69.95
2024-01-20T01:43:37.842Z,70.27
2024-01-20T01:46:10.490Z,70.30
2024-01-20T01:48:43.331Z,70.23
2024-01-20T01:51:15.489Z,70.33
2024-01-20T01:53:47.921Z,70.35
2024-01-20T01:56:21.037Z,70.27
2024-01-20T01:58:52.901Z,70.41
2024-01-20T02:01:24.814Z,70.23
2024-01-20T02:03:56.708Z,70.50
2024-01-20T02:06:28.650Z,70.53
2024-01-20T02:09:00.786Z,70.59
2024-01-20T02:11:33.477Z,70.46
2024-01-20T02:14:05.663Z,70.57
2024-01-20T02:16:37.512Z,70.66
2024-01-20T02:19:09.606Z,70.61
2024-01-20T02:21:42.428Z,70.78
2024-01-20T02:24:14.501Z,70.83
2024-01-20T02:26:46.458Z,70.66
2024-01-20T02:29:18.228Z,70.69
2024-01-20T02:31:50.012Z,70.79
2024-01-20T02:34:21.835Z,71.02
2024-01-20T02:36:53.702Z,71.01
2024-01-20T02:39:25.663Z,71.08
2024-01-20T02:41:57.544Z,70.95
2024-01-20T02:44:29.327Z,70.82
2024-01-20T02:47:01.137Z,70.82
2024-01-20T02:49:33.143Z,70.85
2024-01-20T02:52:05.205Z,70.98
2024-01-20T02:54:37.062Z,70.99
2024-01-20T02:57:09.108Z,71.10
2024-01-20T02:59:40.981Z,71.08
2024-01-20T03:02:12.850Z,71.15
2024-01-20T03:04:44.854Z,71.05
2024-01-20T03:07:17.357Z,71.11
2024-01-20T03:09:49.109Z,71.03
2024-01-20T03:12:21.024Z,71.21
2024-01-20T03:14:53.292Z,71.06
2024-01-20T03:17:25.106Z,71.21
2024-01-20T03:19:56.944Z,71.25
2024-01-20T03:22:28.727Z,71.34
2024-01-20T03:25:00.672Z,71.20
2024-01-20T03:27:32.477Z,71.23
2024-01-20T03:30:04.529Z,71.14
2024-01-20T03:32:36.358Z,71.33
2024-01-20T03:35:09.127Z,71.45
2024-01-20T03:37:40.900Z,71.60
2024-01-20T03:40:13.231Z,71.76
2024-01-20T03:42:44.980Z,71.63
2024-01-20T03:45:16.834Z,71.80
2024-01-20T03:47:48.654Z,71.92
2024-01-20T03:50:20.564Z,72.02
2024-01-20T03:52:52.452Z,72.03
2024-01-20T03:55:24.239Z,71.92
2024-01-20T03:57:55.996Z,71.94
2024-01-20T04:00:27.920Z,72.07
2024-01-20T04:02:59.738Z,72.18
2024-01-20T04:05:31.640Z,72.24
2024-01-20T04:08:03.453Z,72.16
2024-01-20T04:10:35.308Z,72.17
2024-01-20T04:13:07.241Z,72.40
2024-01-20T04:15:39.092Z,72.33
2024-01-20T04:18:11.283Z,72.40
2024-01-20T04:20:44.082Z,72.17
2024-01-20T04:23:15.983Z,72.21
2024-01-20T04:25:47.737Z,72.28
2024-01-20T04:28:19.492Z,71.96
2024-01-20T04:30:51.781Z,72.24
2024-01-20T04:33:23.619Z,72.33
2024-01-20T04:35:55.582Z,72.28
2024-01-20T04:38:28.052Z,72.53
2024-01-20T04:40:59.832Z,72.48
2024-01-20T04:43:32.329Z,72.58
2024-01-20T04:46:04.096Z,72.44
2024-01-20T04:48:36.047Z,72.49
2024-01-20T04:51:08.301Z,72.47
2024-01-20T04:53:40.096Z,72.37
2024-01-20T04:56:11.980Z,72.44
2024-01-20T04:58:43.776Z,72.70
2024-01-20T05:01:15.639Z,72.59
2024-01-20T05:03:47.767Z,72.55
2024-01-20T05:06:19.680Z,72.82
2024-01-20T05:08:51.595Z,72.71
2024-01-20T05:11:23.555Z,72.71
2024-01-20T05:13:55.328Z,72.44
2024-01-20T05:16:27.106Z,72.41
2024-01-20T05:18:59.145Z,72.48
2024-01-20T05:21:31.128Z,72.51
2024-01-20T05:24:02.907Z,72.96
2024-01-20T05:26:34.756Z,72.73
2024-01-20T05:29:06.543Z,72.44
2024-01-20T05:31:38.353Z,72.71
2024-01-20T05:34:10.221Z,72.58
2024-01-20T05:36:42.171Z,72.62
2024-01-20T05:39:13.956Z,72.40
2024-01-20T05:41:45.877Z,72.57
2024-01-20T05:44:17.717Z,72.42
2024-01-20T05:46:49.455Z,72.56
2024-01-20T05:49:21.318Z,72.58
2024-01-20T05:51:53.140Z,72.59
2024-01-20T05:54:24.990Z,72.76
2024-01-20T05:56:56.792Z,72.87
2024-01-20T05:59:28.557Z,72.78
2024-01-20T06:02:00.391Z,73.00
2024-01-20T06:04:32.202Z,72.88
2024-01-20T06:07:04.074Z,73.09
2024-01-20T06:09:37.390Z,72.71
2024-01-20T06:12:10.725Z,72.75
2024-01-20T06:14:41.415Z,72.58
2024-01-20T06:17:13.228Z,72.32
2024-01-20T06:19:44.977Z,72.15
2024-01-20T06:22:16.834Z,72.06
2024-01-20T06:24:48.613Z,72.20
2024-01-20T06:27:20.463Z,71.99
2024-01-20T06:29:52.292Z,72.10
2024-01-20T06:32:24.149Z,72.01
2024-01-20T06:34:55.939Z,72.01
2024-01-20T06:37:27.695Z,71.84
2024-01-20T06:39:59.439Z,72.02
2024-01-20T06:42:31.286Z,71.71
2024-01-20T06:45:03.650Z,71.68
2024-01-20T06:47:35.671Z,71.60
2024-01-20T06:50:09.659Z,71.45
2024-01-20T06:52:43.423Z,71.38
2024-01-20T06:55:15.501Z,71.37
2024-01-20T06:57:47.333Z,71.52
2024-01-20T07:00:20.091Z,71.61
2024-01-20T07:02:50.903Z,71.39
2024-01-20T07:05:22.742Z,71.33
2024-01-20T07:07:54.514Z,71.31
2024-01-20T07:10:26.277Z,71.48
2024-01-20T07:12:58.103Z,71.08
2024-01-20T07:15:29.888Z,71.09
2024-01-20T07:18:01.756Z,71.12
2024-01-20T07:20:33.524Z,70.84
2024-01-20T07:23:05.512Z,70.75
2024-01-20T07:25:38.028Z,70.85
2024-01-20T07:28:09.968Z,71.03
2024-01-20T07:30:41.831Z,70.75
2024-01-20T07:33:13.713Z,70.53
2024-01-20T07:35:45.652Z,70.39
2024-01-20T07:38:18.230Z,70.59
2024-01-20T07:40:50.030Z,70.60
2024-01-20T07:43:22.120Z,70.84
2024-01-20T07:45:55.349Z,70.66
2024-01-20T07:48:27.909Z,70.24
2024-01-20T07:50:59.849Z,70.22
2024-01-20T07:53:31.676Z,69.93
2024-01-20T07:56:03.451Z,69.97
2024-01-20T07:58:35.217Z,69.99
2024-01-20T08:01:07.323Z,69.94
2024-01-20T08:03:39.206Z,69.84
2024-01-20T08:06:11.126Z,69.63
2024-01-20T08:08:43.706Z,69.63
2024-01-20T08:11:15.696Z,69.59
2024-01-20T08:13:47.543Z,69.41
2024-01-20T08:16:19.339Z,69.25
2024-01-20T08:18:51.264Z,69.22
2024-01-20T08:21:25.793Z,69.18
2024-01-20T08:23:57.645Z,68.89
2024-01-20T08:26:29.541Z,68.49
2024-01-20T08:29:01.457Z,68.40
2024-01-20T08:31:33.238Z,67.96
2024-01-20T08:34:05.277Z,67.97
2024-01-20T08:36:37.097Z,68.05
2024-01-20T08:39:09.667Z,68.06
2024-01-20T08:41:42.012Z,67.95
2024-01-20T08:44:13.757Z,68.04
2024-01-20T08:46:46.570Z,67.85
2024-01-20T08:49:18.502Z,67.88
2024-01-20T08:51:50.333Z,67.72
2024-01-20T08:54:22.127Z,67.87
2024-01-20T08:56:53.908Z,67.85
2024-01-20T08:59:25.683Z,67.63
2024-01-20T09:01:57.411Z,67.59
2024-01-20T09:04:29.199Z,67.53
2024-01-20T09:07:01.019Z,67.80
2024-01-20T09:09:32.970Z,67.61
2024-01-20T09:12:05.208Z,67.56
2024-01-20T09:14:37.518Z,67.57
2024-01-20T09:17:09.361Z,67.80
2024-01-20T09:19:41.287Z,67.76
2024-01-20T09:22:13.124Z,67.68
2024-01-20T09:24:44.893Z,67.45
2024-01-20T09:27:18.178Z,67.74
2024-01-20T09:29:50.010Z,67.48
2024-01-20T09:32:22.225Z,67.59
2024-01-20T09:34:54.029Z,67.67
2024-01-20T09:37:25.823Z,67.81
2024-01-20T09:39:58.364Z,67.60
2024-01-20T09:42:30.655Z,67.88
2024-01-20T09:45:03.205Z,67.71
2024-01-20T09:47:35.096Z,67.62
2024-01-20T09:50:08.130Z,67.55
2024-01-20T09:52:49.870Z,67.76
2024-01-20T09:55:24.838Z,67.11
2024-01-20T09:57:57.314Z,67.11
2024-01-20T10:00:29.524Z,66.79
2024-01-20T10:03:06.752Z,66.98
2024-01-20T10:05:39.619Z,67.27
2024-01-20T10:08:12.285Z,66.96
2024-01-20T10:10:44.153Z,66.76
2024-01-20T10:13:16.766Z,66.62
2024-01-20T10:15:48.674Z,66.52
2024-01-20T10:18:20.555Z,66.33
2024-01-20T10:21:02.086Z,66.43
2024-01-20T10:23:35.517Z,66.13
2024-01-20T10:26:06.698Z,66.10
2024-01-20T10:28:38.588Z,65.92
2024-01-20T10:31:11.076Z,66.11
2024-01-20T10:33:43.083Z,65.96
2024-01-20T10:36:18.375Z,65.78
2024-01-20T10:38:54.496Z,65.80
2024-01-20T10:41:27.113Z,65.85
2024-01-20T10:44:03.899Z,65.95
2024-01-20T10:46:41.570Z,65.50
2024-01-20T10:49:19.931Z,64.94
2024-01-20T10:51:53.506Z,64.96
2024-01-20T10:54:26.195Z,64.63
2024-01-20T10:56:58.352Z,65.57
2024-01-20T10:59:32.794Z,65.06
2024-01-20T11:02:06.110Z,63.39
2024-01-20T11:04:39.536Z,61.24
2024-01-20T11:07:13.257Z,60.13
2024-01-20T11:09:55.042Z,60.36
2024-01-20T11:12:27.565Z,59.27
2024-01-20T11:15:00.469Z,57.78
2024-01-20T11:17:32.503Z,57.35
2024-01-20T11:20:15.041Z,58.05
2024-01-20T11:22:48.702Z,58.92
2024-01-20T11:25:20.695Z,59.38
2024-01-20T11:27:55.231Z,59.68
2024-01-20T11:30:31.480Z,60.38
2024-01-20T11:33:04.371Z,60.92
2024-01-20T11:35:39.685Z,60.67
2024-01-20T11:38:12.100Z,60.38
2024-01-20T11:40:44.113Z,61.45
2024-01-20T11:43:15.888Z,61.67
2024-01-20T11:45:47.658Z,60.30
2024-01-20T11:48:22.667Z,58.00
2024-01-20T11:50:54.790Z,55.12
2024-01-20T11:53:26.686Z,51.92
2024-01-20T11:56:01.025Z,51.32
2024-01-20T11:58:33.244Z,52.14
2024-01-20T12:01:05.718Z,52.94
2024-01-20T12:03:38.015Z,53.04
2024-01-20T12:06:13.882Z,53.85
2024-01-20T12:08:47.848Z,54.27
2024-01-20T12:11:24.004Z,54.09
2024-01-20T12:13:55.786Z,54.01
2024-01-20T12:16:27.682Z,52.46
2024-01-20T12:18:59.584Z,51.54
2024-01-20T12:21:31.525Z,50.14
2024-01-20T12:24:03.955Z,48.47
2024-01-20T12:26:36.177Z,47.17
2024-01-20T12:29:07.949Z,47.31
2024-01-20T12:31:39.730Z,46.10
2024-01-20T12:34:11.632Z,46.41
2024-01-20T12:36:43.476Z,46.84
2024-01-20T12:39:16.738Z,47.11
2024-01-20T12:41:48.893Z,47.50
2024-01-20T12:44:21.609Z,46.73
2024-01-20T12:46:53.883Z,46.72
2024-01-20T12:49:26.193Z,46.09
2024-01-20T12:51:58.356Z,45.52
2024-01-20T12:54:30.323Z,45.06
2024-01-20T12:57:02.258Z,44.51
2024-01-20T12:59:34.622Z,44.61
2024-01-20T13:02:06.752Z,44.21
2024-01-20T13:04:40.705Z,43.96
2024-01-20T13:07:14.954Z,44.52
2024-01-20T13:09:48.200Z,44.31
2024-01-20T13:12:20.037Z,44.49
2024-01-20T13:14:51.839Z,44.20
2024-01-20T13:17:23.585Z,44.68
2024-01-20T13:19:55.481Z,44.82
2024-01-20T13:22:27.838Z,45.14
2024-01-20T13:25:00.219Z,44.94
2024-01-20T13:27:32.060Z,44.97
2024-01-20T13:30:03.990Z,45.33
2024-01-20T13:32:36.302Z,46.23
2024-01-20T13:35:09.785Z,46.80
2024-01-20T13:37:41.700Z,47.35
2024-01-20T13:40:15.018Z,47.97
2024-01-20T13:42:46.947Z,48.73
2024-01-20T13:45:18.852Z,49.32
2024-01-20T13:47:50.739Z,50.02
2024-01-20T13:50:25.571Z,50.46
2024-01-20T13:52:58.022Z,51.03
2024-01-20T13:55:29.909Z,51.65
2024-01-20T13:58:01.664Z,51.92
2024-01-20T14:00:33.685Z,52.28
2024-01-20T14:03:06.219Z,52.65
2024-01-20T14:05:38.282Z,53.09
2024-01-20T14:08:10.300Z,53.42
2024-01-20T14:10:42.468Z,53.80
2024-01-20T14:13:14.289Z,54.14
2024-01-20T14:15:46.155Z,54.48
2024-01-20T14:18:18.112Z,54.74
2024-01-20T14:20:50.093Z,55.19
2024-01-20T14:23:23.258Z,55.22
2024-01-20T14:25:55.132Z,55.45
2024-01-20T14:28:27.145Z,55.57
2024-01-20T14:30:58.908Z,56.10
2024-01-20T14:33:30.867Z,56.27
2024-01-20T14:36:03.071Z,56.69
2024-01-20T14:38:35.562Z,56.83
2024-01-20T14:41:08.025Z,57.00
2024-01-20T14:43:40.208Z,57.26
2024-01-20T14:46:11.967Z,57.52
2024-01-20T14:48:43.951Z,57.60
2024-01-20T14:51:16.511Z,57.92
2024-01-20T14:53:48.366Z,57.99
2024-01-20T14:56:20.209Z,58.14
2024-01-20T14:58:52.002Z,58.34
2024-01-20T15:01:24.469Z,58.58
2024-01-20T15:03:56.504Z,58.66
2024-01-20T15:06:29.630Z,59.00
2024-01-20T15:09:01.755Z,59.24
2024-01-20T15:11:33.615Z,59.35
2024-01-20T15:14:08.776Z,59.51
2024-01-20T15:16:40.574Z,59.86
2024-01-20T15:19:12.527Z,59.85
2024-01-20T15:21:44.516Z,59.95
2024-01-20T15:24:16.488Z,60.30
2024-01-20T15:26:48.669Z,60.52
2024-01-20T15:29:20.454Z,60.61
2024-01-20T15:31:52.438Z,60.74
2024-01-20T15:34:24.325Z,60.83
2024-01-20T15:36:56.369Z,60.93
2024-01-20T15:39:28.237Z,61.04
2024-01-20T15:42:00.070Z,61.33
2024-01-20T15:44:32.004Z,61.57
2024-01-20T15:47:03.829Z,61.83
2024-01-20T15:49:35.709Z,61.76
2024-01-20T15:52:07.841Z,61.81
2024-01-20T15:54:39.776Z,61.88
2024-01-20T15:57:11.640Z,61.94
2024-01-20T15:59:43.383Z,62.10
2024-01-20T16:02:15.149Z,62.30
2024-01-20T16:04:46.941Z,62.31
2024-01-20T16:07:18.784Z,62.45
2024-01-20T16:09:50.688Z,62.53
2024-01-20T16:12:22.527Z,62.65
2024-01-20T16:14:54.385Z,62.71
2024-01-20T16:17:26.279Z,62.88
2024-01-20T16:19:58.111Z,62.86
2024-01-20T16:22:31.086Z,62.92
2024-01-20T16:25:05.163Z,63.14
2024-01-20T16:27:37.069Z,63.27
2024-01-20T16:30:10.488Z,63.28
2024-01-20T16:32:40.951Z,63.34
2024-01-20T16:35:14.366Z,63.41
2024-01-20T16:37:46.137Z,63.47
2024-01-20T16:40:18.054Z,63.55
2024-01-20T16:42:49.947Z,63.73
2024-01-20T16:45:21.819Z,63.61
2024-01-20T16:47:56.011Z,63.78
2024-01-20T16:50:28.172Z,63.86
2024-01-20T16:53:03.556Z,63.76
2024-01-20T16:55:36.306Z,63.90
2024-01-20T16:58:08.269Z,63.98
2024-01-20T17:00:40.159Z,63.99
2024-01-20T17:03:12.050Z,64.16
2024-01-20T17:05:44.063Z,64.16
2024-01-20T17:08:15.822Z,64.16
2024-01-20T17:10:47.605Z,64.37
2024-01-20T17:13:19.369Z,64.36
2024-01-20T17:15:51.138Z,64.49
2024-01-20T17:18:23.043Z,64.52
2024-01-20T17:20:54.873Z,64.50
2024-01-20T17:23:26.989Z,64.50
2024-01-20T17:25:58.791Z,64.52
2024-01-20T17:28:31.093Z,64.54
2024-01-20T17:31:02.963Z,64.47
2024-01-20T17:33:35.080Z,64.58
2024-01-20T17:36:08.071Z,64.66
2024-01-20T17:38:40.490Z,64.67
2024-01-20T17:41:12.265Z,64.75
2024-01-20T17:43:44.169Z,64.68
2024-01-20T17:46:16.069Z,64.78
2024-01-20T17:48:49.598Z,64.85
2024-01-20T17:51:21.496Z,64.80
2024-01-20T17:53:53.307Z,64.66
2024-01-20T17:56:25.112Z,64.56
2024-01-20T17:58:56.966Z,64.50
2024-01-20T18:01:29.155Z,64.70
2024-01-20T18:04:01.643Z,64.61
2024-01-20T18:06:33.759Z,64.66
2024-01-20T18:09:06.116Z,64.81
2024-01-20T18:11:37.960Z,64.69
2024-01-20T18:14:09.713Z,64.72
2024-01-20T18:16:42.007Z,64.54
2024-01-20T18:19:13.854Z,64.37
2024-01-20T18:21:48.860Z,64.44
2024-01-20T18:24:20.682Z,64.47
2024-01-20T18:26:52.493Z,64.39
2024-01-20T18:29:24.280Z,64.12
2024-01-20T18:31:57.582Z,64.10
2024-01-20T18:34:29.577Z,64.07
2024-01-20T18:37:01.713Z,64.04
2024-01-20T18:39:34.710Z,63.81
2024-01-20T18:42:07.105Z,63.85
2024-01-20T18:44:38.920Z,63.85
2024-01-20T18:47:11.245Z,63.67
2024-01-20T18:49:43.136Z,63.67
2024-01-20T18:52:15.000Z,63.65
2024-01-20T18:54:46.799Z,63.54
2024-01-20T18:57:19.540Z,63.36
2024-01-20T18:59:51.349Z,63.34
2024-01-20T19:02:23.535Z,63.23
2024-01-20T19:04:55.465Z,63.29
2024-01-20T19:07:27.592Z,63.34
2024-01-20T19:09:59.474Z,63.29
2024-01-20T19:12:31.290Z,63.17
2024-01-20T19:15:07.245Z,63.18
2024-01-20T19:17:41.042Z,63.19
2024-01-20T19:20:13.384Z,63.10
2024-01-20T19:22:45.165Z,63.16
2024-01-20T19:25:17.081Z,63.07
2024-01-20T19:27:49.698Z,63.16
2024-01-20T19:30:23.180Z,62.97
2024-01-20T19:32:55.904Z,63.07
2024-01-20T19:35:27.844Z,63.05
2024-01-20T19:38:02.143Z,63.07
2024-01-20T19:40:33.917Z,63.14
2024-01-20T19:43:05.746Z,63.00
2024-01-20T19:45:37.625Z,62.87
2024-01-20T19:48:10.535Z,62.91
2024-01-20T19:50:42.501Z,62.89
2024-01-20T19:53:14.286Z,62.88
2024-01-20T19:55:46.220Z,63.07
2024-01-20T19:58:18.025Z,63.06
2024-01-20T20:00:51.273Z,62.94
2024-01-20T20:03:21.765Z,62.83
2024-01-20T20:05:53.668Z,62.96
2024-01-20T20:08:25.604Z,62.81
2024-01-20T20:10:57.608Z,62.78
2024-01-20T20:13:30.728Z,62.84
2024-01-20T20:16:02.527Z,62.66
2024-01-20T20:18:34.620Z,62.72
2024-01-20T20:21:06.630Z,62.67
2024-01-20T20:23:38.400Z,62.74
2024-01-20T20:26:10.707Z,62.67
2024-01-20T20:28:43.064Z,62.77
2024-01-20T20:31:17.398Z,62.82
2024-01-20T20:33:49.431Z,62.87
2024-01-20T20:36:23.804Z,62.88
2024-01-20T20:38:55.623Z,62.93
2024-01-20T20:41:27.423Z,62.84
2024-01-20T20:43:59.194Z,62.86
2024-01-20T20:46:31.089Z,62.86
2024-01-20T20:49:03.060Z,62.81
2024-01-20T20:51:34.936Z,62.77
2024-01-20T20:54:06.802Z,62.87
2024-01-20T20:56:38.587Z,62.91
2024-01-20T20:59:10.361Z,62.89
2024-01-20T21:01:44.059Z,62.91
2024-01-20T21:04:16.187Z,62.84
2024-01-20T21:06:48.017Z,62.80
2024-01-20T21:09:20.951Z,62.79
2024-01-20T21:11:52.664Z,62.82
2024-01-20T21:14:24.397Z,62.80
2024-01-20T21:16:56.177Z,62.60
2024-01-20T21:19:28.155Z,62.71
2024-01-20T21:21:59.953Z,62.69
2024-01-20T21:24:32.952Z,62.60
2024-01-20T21:27:05.296Z,62.56
2024-01-20T21:29:37.049Z,62.57
2024-01-20T21:32:09.654Z,62.61
2024-01-20T21:34:41.516Z,62.53
2024-01-20T21:37:13.345Z,62.48
2024-01-20T21:39:45.223Z,62.48
2024-01-20T21:42:17.589Z,62.51
2024-01-20T21:44:49.429Z,62.63
2024-01-20T21:47:21.374Z,62.56
2024-01-20T21:49:53.096Z,62.59
2024-01-20T21:52:24.942Z,62.62
2024-01-20T21:54:57.020Z,62.73
2024-01-20T21:57:29.862Z,62.86
2024-01-20T22:00:01.844Z,62.83
2024-01-20T22:02:34.496Z,62.91
2024-01-20T22:05:07.892Z,62.79
2024-01-20T22:07:38.109Z,62.79
2024-01-20T22:10:11.418Z,62.79
2024-01-20T22:12:43.253Z,62.85
2024-01-20T22:15:15.414Z,62.85
2024-01-20T22:17:47.380Z,62.83
2024-01-20T22:20:19.458Z,63.09
2024-01-20T22:22:52.601Z,63.21
2024-01-20T22:25:24.428Z,63.42
2024-01-20T22:27:56.513Z,63.57
2024-01-20T22:30:28.420Z,63.68
2024-01-20T22:33:01.943Z,63.71
2024-01-20T22:35:32.285Z,63.87
2024-01-20T22:38:04.075Z,63.83
2024-01-20T22:40:35.786Z,63.89
2024-01-20T22:43:07.733Z,64.19
2024-01-20T22:45:39.521Z,64.44
2024-01-20T22:48:11.991Z,64.57
2024-01-20T22:50:44.003Z,64.93
2024-01-20T22:53:15.717Z,65.09
2024-01-20T22:55:47.527Z,65.31
2024-01-20T22:58:19.355Z,65.46
2024-01-20T23:00:51.229Z,65.71
2024-01-20T23:03:23.145Z,65.92
2024-01-20T23:05:54.927Z,66.43
2024-01-20T23:08:26.656Z,66.66
2024-01-20T23:10:58.360Z,67.07
2024-01-20T23:13:30.134Z,67.51
2024-01-20T23:16:01.820Z,67.69
2024-01-20T23:18:33.628Z,67.88
2024-01-20T23:21:05.397Z,67.98
2024-01-20T23:23:37.108Z,67.99
2024-01-20T23:26:10.610Z,68.33
2024-01-20T23:28:41.069Z,68.45
2024-01-20T23:31:13.080Z,68.69
2024-01-20T23:33:44.946Z,68.94
2024-01-20T23:36:16.735Z,68.96
2024-01-20T23:38:48.482Z,69.08
2024-01-20T23:41:20.216Z,69.35
2024-01-20T23:43:51.945Z,69.39
2024-01-20T23:46:23.668Z,69.52
2024-01-20T23:48:55.435Z,69.46
2024-01-20T23:51:27.255Z,69.74
2024-01-20T23:53:58.984Z,69.94
2024-01-20T23:56:30.739Z,70.26
2024-01-20T23:59:03.317Z,70.38
